createdAt,value
2019-03-27T00:01:38.435Z,76.17
2019-03-27T00:04:08.066Z,76.13
2019-03-27T00:06:37.693Z,75.92
2019-03-27T00:09:07.322Z,76.34
2019-03-27T00:11:36.950Z,76.59
2019-03-27T00:14:06.328Z,76.59
2019-03-27T00:16:35.892Z,76.38
2019-03-27T00:19:05.519Z,76.44
2019-03-27T00:21:35.154Z,76.57
2019-03-27T00:24:04.883Z,76.43
2019-03-27T00:26:34.506Z,76.96
2019-03-27T00:29:04.042Z,77.14
2019-03-27T00:31:33.662Z,77.12
2019-03-27T00:34:03.444Z,77.22
2019-03-27T00:36:33.118Z,76.87
2019-03-27T00:39:02.857Z,76.61
2019-03-27T00:41:32.793Z,77.11
2019-03-27T00:44:02.346Z,77.86
2019-03-27T00:46:31.947Z,77.99
2019-03-27T00:49:01.678Z,77.79
2019-03-27T00:51:31.398Z,78.01
2019-03-27T00:54:00.926Z,78.50
2019-03-27T00:56:30.555Z,79.11
2019-03-27T00:59:00.055Z,79.10
2019-03-27T01:01:29.729Z,79.08
2019-03-27T01:03:59.641Z,79.43
2019-03-27T01:06:29.277Z,79.40
2019-03-27T01:08:58.903Z,79.71
2019-03-27T01:11:28.522Z,79.88
2019-03-27T01:13:58.272Z,79.99
2019-03-27T01:16:27.881Z,80.04
2019-03-27T01:18:57.510Z,81.00
2019-03-27T01:21:27.142Z,80.69
2019-03-27T01:23:56.870Z,80.81
2019-03-27T01:26:26.512Z,80.98
2019-03-27T01:28:56.136Z,80.96
2019-03-27T01:31:25.761Z,81.69
2019-03-27T01:33:55.493Z,82.89
2019-03-27T01:36:25.117Z,81.58
2019-03-27T01:38:54.635Z,81.71
2019-03-27T01:41:24.268Z,81.29
2019-03-27T01:43:53.814Z,81.35
2019-03-27T01:46:23.522Z,81.66
2019-03-27T01:48:53.766Z,81.57
2019-03-27T01:51:23.290Z,81.82
2019-03-27T01:53:52.930Z,82.30
2019-03-27T01:56:22.548Z,82.29
2019-03-27T01:58:52.169Z,82.50
2019-03-27T02:01:21.799Z,83.01
2019-03-27T02:03:51.533Z,82.52
2019-03-27T02:06:21.271Z,82.02
2019-03-27T02:08:50.739Z,81.53
2019-03-27T02:11:20.308Z,81.39
2019-03-27T02:13:49.947Z,81.23
2019-03-27T02:16:19.476Z,81.25
2019-03-27T02:18:49.088Z,81.35
2019-03-27T02:21:18.829Z,81.46
2019-03-27T02:23:48.398Z,81.40
2019-03-27T02:26:18.091Z,81.80
2019-03-27T02:28:47.916Z,81.28
2019-03-27T02:31:17.456Z,81.84
2019-03-27T02:33:47.176Z,81.02
2019-03-27T02:36:16.711Z,80.91
2019-03-27T02:38:46.331Z,80.47
2019-03-27T02:41:16.061Z,80.67
2019-03-27T02:43:45.779Z,80.79
2019-03-27T02:46:24.607Z,81.53
2019-03-27T02:48:46.882Z,81.59
2019-03-27T02:51:16.625Z,80.91
2019-03-27T02:53:47.378Z,80.43
2019-03-27T02:56:17.003Z,80.61
2019-03-27T02:58:46.735Z,81.52
2019-03-27T03:01:16.253Z,81.52
2019-03-27T03:03:46.290Z,81.92
2019-03-27T03:06:17.150Z,81.80
2019-03-27T03:08:46.779Z,82.20
2019-03-27T03:11:19.035Z,83.24
2019-03-27T03:13:48.581Z,82.74
2019-03-27T03:16:18.314Z,81.68
2019-03-27T03:18:47.847Z,80.65
2019-03-27T03:21:17.565Z,79.90
2019-03-27T03:23:47.316Z,79.73
2019-03-27T03:26:17.037Z,80.04
2019-03-27T03:28:46.765Z,79.08
2019-03-27T03:31:16.405Z,78.88
2019-03-27T03:33:45.883Z,78.60
2019-03-27T03:36:15.641Z,78.24
2019-03-27T03:38:45.384Z,78.07
2019-03-27T03:41:15.106Z,77.62
2019-03-27T03:43:44.834Z,77.30
2019-03-27T03:46:14.541Z,76.75
2019-03-27T03:48:44.085Z,76.70
2019-03-27T03:51:13.716Z,76.34
2019-03-27T03:53:43.449Z,75.87
2019-03-27T03:56:13.066Z,75.37
2019-03-27T03:58:42.803Z,74.84
2019-03-27T04:01:12.377Z,74.32
2019-03-27T04:03:42.404Z,73.80
2019-03-27T04:06:12.116Z,73.03
2019-03-27T04:08:42.744Z,72.70
2019-03-27T04:11:12.392Z,71.93
2019-03-27T04:13:42.200Z,72.12
2019-03-27T04:16:11.942Z,72.26
2019-03-27T04:18:41.471Z,72.13
2019-03-27T04:21:11.301Z,70.31
2019-03-27T04:23:41.026Z,70.31
2019-03-27T04:26:11.035Z,69.83
2019-03-27T04:28:42.025Z,69.40
2019-03-27T04:31:11.649Z,69.22
2019-03-27T04:33:41.293Z,69.68
2019-03-27T04:36:10.877Z,68.67
2019-03-27T04:38:40.655Z,68.54
2019-03-27T04:41:10.368Z,68.74
2019-03-27T04:43:40.005Z,68.74
2019-03-27T04:46:09.513Z,68.62
2019-03-27T04:48:39.141Z,68.33
2019-03-27T04:51:08.874Z,68.11
2019-03-27T04:53:38.404Z,68.17
2019-03-27T04:56:08.035Z,67.55
2019-03-27T04:58:37.671Z,67.67
2019-03-27T05:01:07.393Z,66.65
2019-03-27T05:03:37.726Z,65.58
2019-03-27T05:06:07.353Z,64.40
2019-03-27T05:08:37.192Z,63.09
2019-03-27T05:11:06.827Z,61.25
2019-03-27T05:13:36.417Z,58.66
2019-03-27T05:16:06.078Z,57.99
2019-03-27T05:18:35.697Z,56.11
2019-03-27T05:21:05.328Z,57.00
2019-03-27T05:23:34.859Z,57.00
2019-03-27T05:26:04.387Z,57.15
2019-03-27T05:28:34.115Z,56.01
2019-03-27T05:31:03.739Z,54.75
2019-03-27T05:33:33.669Z,54.91
2019-03-27T05:36:03.412Z,55.26
2019-03-27T05:38:33.138Z,54.61
2019-03-27T05:41:02.757Z,55.76
2019-03-27T05:43:32.401Z,54.42
2019-03-27T05:46:03.149Z,53.96
2019-03-27T05:48:32.771Z,53.92
2019-03-27T05:51:02.409Z,51.54
2019-03-27T05:53:32.031Z,49.17
2019-03-27T05:56:01.661Z,49.42
2019-03-27T05:58:31.280Z,50.12
2019-03-27T06:01:00.910Z,50.27
2019-03-27T06:03:30.437Z,49.38
2019-03-27T06:06:00.066Z,49.38
2019-03-27T06:08:29.820Z,48.50
2019-03-27T06:10:59.330Z,47.53
2019-03-27T06:13:29.052Z,45.45
2019-03-27T06:15:58.887Z,43.60
2019-03-27T06:18:28.614Z,39.59
2019-03-27T06:20:58.237Z,35.18
2019-03-27T06:23:27.871Z,30.26
2019-03-27T06:25:57.504Z,28.62
2019-03-27T06:28:27.232Z,29.71
2019-03-27T06:30:56.963Z,32.37
2019-03-27T06:33:26.589Z,28.07
2019-03-27T06:35:56.413Z,25.59
2019-03-27T06:38:26.047Z,22.71
2019-03-27T06:40:55.676Z,21.20
2019-03-27T06:43:25.766Z,22.52
2019-03-27T06:45:59.336Z,20.93
2019-03-27T06:48:28.954Z,21.60
2019-03-27T06:50:58.580Z,23.03
2019-03-27T06:53:28.321Z,24.08
2019-03-27T06:55:58.003Z,24.06
2019-03-27T06:58:27.673Z,21.71
2019-03-27T07:00:57.708Z,24.73
2019-03-27T07:03:27.347Z,25.71
2019-03-27T07:05:57.267Z,29.79
2019-03-27T07:08:28.424Z,32.03
2019-03-27T07:10:59.097Z,35.24
2019-03-27T07:13:28.712Z,32.61
2019-03-27T07:15:58.347Z,30.96
2019-03-27T07:18:39.586Z,27.11
2019-03-27T07:21:01.686Z,22.72
2019-03-27T07:23:32.233Z,22.91
2019-03-27T07:26:03.401Z,24.06
2019-03-27T07:28:33.226Z,24.64
2019-03-27T07:31:04.925Z,26.43
2019-03-27T07:33:34.530Z,27.82
2019-03-27T07:36:05.691Z,32.33
2019-03-27T07:38:36.136Z,31.78
2019-03-27T07:41:05.863Z,32.25
2019-03-27T07:43:35.494Z,31.84
2019-03-27T07:46:05.224Z,32.89
2019-03-27T07:48:34.955Z,33.42
2019-03-27T07:51:06.222Z,33.51
2019-03-27T07:53:35.951Z,33.07
2019-03-27T07:56:08.029Z,33.87
2019-03-27T07:58:37.665Z,34.71
2019-03-27T08:01:08.059Z,34.71
2019-03-27T08:03:37.667Z,33.98
2019-03-27T08:06:07.256Z,32.38
2019-03-27T08:08:36.991Z,31.92
2019-03-27T08:11:08.466Z,31.12
2019-03-27T08:13:39.094Z,31.69
2019-03-27T08:16:09.656Z,31.07
2019-03-27T08:18:39.654Z,31.45
2019-03-27T08:21:10.473Z,32.18
2019-03-27T08:23:40.512Z,32.98
2019-03-27T08:26:11.232Z,32.64
2019-03-27T08:28:41.701Z,32.61
2019-03-27T08:31:11.415Z,33.42
2019-03-27T08:33:41.151Z,31.25
2019-03-27T08:36:10.766Z,31.64
2019-03-27T08:38:40.496Z,30.30
2019-03-27T08:41:10.226Z,32.24
2019-03-27T08:43:41.394Z,27.79
2019-03-27T08:46:11.019Z,22.38
2019-03-27T08:48:40.755Z,24.90
2019-03-27T08:51:11.606Z,27.64
2019-03-27T08:53:41.127Z,30.34
2019-03-27T08:56:11.889Z,31.62
2019-03-27T08:58:41.441Z,32.51
2019-03-27T09:01:11.239Z,32.88
2019-03-27T09:03:40.872Z,33.19
2019-03-27T09:06:10.495Z,32.59
2019-03-27T09:08:40.244Z,31.48
2019-03-27T09:11:09.957Z,29.71
2019-03-27T09:13:39.587Z,27.21
2019-03-27T09:16:09.316Z,25.02
2019-03-27T09:18:38.938Z,24.45
2019-03-27T09:21:08.703Z,26.07
2019-03-27T09:23:38.307Z,26.09
2019-03-27T09:26:08.955Z,22.19
2019-03-27T09:28:38.508Z,17.87
2019-03-27T09:31:08.208Z,21.78
2019-03-27T09:33:37.833Z,24.44
2019-03-27T09:36:07.716Z,27.08
2019-03-27T09:38:37.498Z,28.28
2019-03-27T09:41:09.479Z,30.23
2019-03-27T09:43:39.213Z,33.68
2019-03-27T09:46:08.510Z,33.05
2019-03-27T09:48:38.508Z,33.11
2019-03-27T09:51:09.227Z,31.98
2019-03-27T09:53:38.157Z,31.99
2019-03-27T09:56:18.542Z,29.98
2019-03-27T09:58:39.031Z,27.50
2019-03-27T10:01:09.223Z,27.00
2019-03-27T10:03:39.093Z,28.59
2019-03-27T10:06:09.965Z,28.84
2019-03-27T10:08:39.418Z,29.79
2019-03-27T10:11:09.212Z,30.14
2019-03-27T10:13:39.189Z,29.62
2019-03-27T10:16:10.000Z,26.31
2019-03-27T10:18:39.719Z,25.34
2019-03-27T10:21:09.356Z,27.09
2019-03-27T10:23:38.975Z,28.66
2019-03-27T10:26:09.943Z,26.95
2019-03-27T10:28:40.044Z,25.50
2019-03-27T10:31:09.810Z,26.82
2019-03-27T10:33:39.763Z,29.82
2019-03-27T10:36:10.392Z,31.41
2019-03-27T10:38:41.681Z,31.74
2019-03-27T10:41:11.387Z,31.07
2019-03-27T10:43:40.922Z,30.42
2019-03-27T10:46:10.539Z,31.29
2019-03-27T10:48:52.029Z,32.27
2019-03-27T10:51:12.865Z,32.63
2019-03-27T10:53:42.645Z,32.24
2019-03-27T10:56:12.332Z,32.82
2019-03-27T10:58:41.955Z,32.65
2019-03-27T11:01:11.957Z,33.04
2019-03-27T11:03:41.617Z,33.02
2019-03-27T11:06:11.250Z,33.19
2019-03-27T11:08:40.873Z,33.34
2019-03-27T11:11:10.506Z,33.40
2019-03-27T11:13:40.226Z,33.76
2019-03-27T11:16:09.893Z,34.23
2019-03-27T11:18:39.697Z,34.94
2019-03-27T11:21:09.422Z,35.15
2019-03-27T11:23:38.948Z,35.53
2019-03-27T11:26:08.577Z,37.51
2019-03-27T11:28:38.102Z,38.58
2019-03-27T11:31:07.705Z,38.80
2019-03-27T11:33:37.551Z,38.23
2019-03-27T11:36:07.231Z,37.93
2019-03-27T11:38:37.675Z,36.26
2019-03-27T11:41:06.984Z,35.58
2019-03-27T11:43:36.519Z,35.58
2019-03-27T11:46:06.222Z,36.25
2019-03-27T11:48:35.945Z,35.98
2019-03-27T11:51:05.476Z,35.58
2019-03-27T11:53:35.194Z,35.38
2019-03-27T11:56:04.931Z,34.77
2019-03-27T11:58:35.468Z,34.10
2019-03-27T12:01:05.001Z,35.54
2019-03-27T12:03:34.636Z,35.48
2019-03-27T12:06:05.375Z,35.48
2019-03-27T12:08:35.006Z,36.34
2019-03-27T12:11:04.740Z,37.94
2019-03-27T12:13:34.280Z,39.39
2019-03-27T12:16:04.097Z,40.12
2019-03-27T12:18:33.733Z,40.19
2019-03-27T12:21:03.352Z,42.37
2019-03-27T12:23:33.086Z,44.05
2019-03-27T12:26:02.663Z,46.16
2019-03-27T12:28:32.339Z,49.48
2019-03-27T12:31:02.168Z,56.61
2019-03-27T12:33:31.795Z,56.61
2019-03-27T12:36:01.526Z,58.90
2019-03-27T12:38:31.161Z,59.03
2019-03-27T12:41:00.781Z,58.25
2019-03-27T12:43:30.653Z,60.39
2019-03-27T12:46:00.440Z,61.88
2019-03-27T12:48:30.087Z,62.00
2019-03-27T12:51:11.978Z,61.69
2019-03-27T12:53:31.288Z,61.42
2019-03-27T12:56:01.231Z,62.97
2019-03-27T12:58:30.848Z,64.23
2019-03-27T13:01:00.368Z,64.19
2019-03-27T13:03:30.303Z,65.46
2019-03-27T13:05:59.846Z,67.63
2019-03-27T13:08:29.451Z,68.24
2019-03-27T13:10:59.197Z,71.09
2019-03-27T13:13:28.817Z,72.02
2019-03-27T13:15:58.437Z,74.24
2019-03-27T13:18:28.074Z,75.48
2019-03-27T13:20:57.796Z,76.10
2019-03-27T13:23:27.424Z,78.33
2019-03-27T13:25:57.153Z,79.12
2019-03-27T13:28:26.884Z,78.66
2019-03-27T13:30:56.509Z,79.69
2019-03-27T13:33:26.354Z,77.73
2019-03-27T13:35:55.875Z,77.15
2019-03-27T13:38:25.696Z,77.78
2019-03-27T13:40:55.498Z,78.67
2019-03-27T13:43:25.262Z,79.52
2019-03-27T13:45:54.906Z,80.28
2019-03-27T13:48:24.631Z,79.85
2019-03-27T13:50:54.374Z,80.41
2019-03-27T13:53:24.182Z,81.00
2019-03-27T13:55:53.810Z,80.82
2019-03-27T13:58:23.444Z,79.99
2019-03-27T14:00:53.065Z,78.19
2019-03-27T14:03:22.858Z,77.95
2019-03-27T14:05:52.530Z,79.06
2019-03-27T14:08:22.254Z,78.12
2019-03-27T14:10:51.994Z,79.68
2019-03-27T14:13:22.663Z,79.80
2019-03-27T14:15:52.367Z,80.01
2019-03-27T14:18:22.101Z,79.87
2019-03-27T14:20:51.744Z,80.91
2019-03-27T14:23:21.552Z,79.95
2019-03-27T14:25:51.179Z,81.40
2019-03-27T14:28:20.692Z,81.52
2019-03-27T14:30:52.045Z,82.36
2019-03-27T14:33:21.708Z,81.95
2019-03-27T14:35:51.433Z,82.37
2019-03-27T14:38:21.062Z,82.11
2019-03-27T14:40:51.503Z,81.88
2019-03-27T14:43:20.554Z,82.53
2019-03-27T14:45:51.275Z,82.16
2019-03-27T14:48:21.823Z,82.67
2019-03-27T14:50:51.327Z,83.92
2019-03-27T14:53:20.986Z,84.71
2019-03-27T14:55:50.707Z,85.83
2019-03-27T14:58:20.331Z,85.65
2019-03-27T15:00:50.171Z,86.26
2019-03-27T15:03:20.740Z,86.06
2019-03-27T15:05:50.546Z,86.93
2019-03-27T15:08:20.277Z,87.09
2019-03-27T15:10:49.785Z,87.89
2019-03-27T15:13:19.331Z,87.17
2019-03-27T15:15:48.964Z,87.29
2019-03-27T15:18:18.691Z,87.95
2019-03-27T15:20:48.310Z,87.98
2019-03-27T15:23:17.844Z,88.01
2019-03-27T15:25:47.466Z,88.66
2019-03-27T15:28:17.089Z,89.33
2019-03-27T15:30:46.743Z,89.58
2019-03-27T15:33:16.364Z,89.85
2019-03-27T15:35:45.975Z,89.94
2019-03-27T15:38:15.621Z,90.01
2019-03-27T15:40:45.947Z,90.02
2019-03-27T15:43:15.570Z,90.00
2019-03-27T15:45:45.192Z,90.22
2019-03-27T15:48:14.833Z,90.05
2019-03-27T15:50:56.973Z,90.15
2019-03-27T15:53:15.930Z,90.27
2019-03-27T15:55:45.907Z,90.51
2019-03-27T15:58:15.691Z,90.09
2019-03-27T16:00:45.641Z,90.15
2019-03-27T16:03:15.257Z,90.34
2019-03-27T16:05:44.988Z,90.50
2019-03-27T16:08:14.631Z,90.68
2019-03-27T16:10:44.148Z,90.59
2019-03-27T16:13:13.772Z,90.53
2019-03-27T16:15:43.395Z,90.69
2019-03-27T16:18:16.277Z,90.65
2019-03-27T16:20:44.662Z,90.87
2019-03-27T16:23:14.324Z,91.12
2019-03-27T16:25:44.049Z,91.14
2019-03-27T16:28:13.680Z,91.24
2019-03-27T16:30:43.306Z,91.13
2019-03-27T16:33:12.965Z,91.27
2019-03-27T16:35:42.674Z,91.58
2019-03-27T16:38:12.531Z,91.77
2019-03-27T16:40:46.181Z,91.86
2019-03-27T16:43:15.836Z,91.78
2019-03-27T16:45:46.608Z,91.56
2019-03-27T16:48:16.440Z,91.68
2019-03-27T16:50:46.184Z,91.68
2019-03-27T16:53:15.789Z,91.55
2019-03-27T16:55:45.406Z,91.56
2019-03-27T16:58:15.047Z,91.47
2019-03-27T17:00:44.758Z,91.55
2019-03-27T17:03:15.521Z,91.81
2019-03-27T17:05:53.879Z,91.74
2019-03-27T17:08:17.850Z,91.51
2019-03-27T17:10:47.475Z,91.49
2019-03-27T17:13:17.205Z,91.54
2019-03-27T17:15:46.810Z,91.84
2019-03-27T17:18:16.430Z,92.11
2019-03-27T17:20:45.980Z,92.27
2019-03-27T17:23:18.461Z,92.46
2019-03-27T17:25:46.968Z,92.59
2019-03-27T17:28:16.805Z,92.62
2019-03-27T17:30:46.445Z,92.68
2019-03-27T17:33:16.073Z,92.93
2019-03-27T17:35:45.698Z,93.06
2019-03-27T17:38:15.320Z,93.14
2019-03-27T17:40:44.943Z,93.32
2019-03-27T17:43:14.478Z,93.33
2019-03-27T17:45:44.001Z,93.32
2019-03-27T17:48:13.866Z,93.41
2019-03-27T17:50:43.696Z,93.49
2019-03-27T17:53:13.518Z,93.50
2019-03-27T17:55:43.230Z,93.33
2019-03-27T17:58:12.846Z,93.16
2019-03-27T18:00:45.265Z,93.04
2019-03-27T18:03:14.768Z,93.06
2019-03-27T18:05:44.298Z,93.06
2019-03-27T18:08:14.948Z,93.20
2019-03-27T18:10:44.577Z,93.19
2019-03-27T18:13:14.195Z,93.10
2019-03-27T18:15:43.931Z,93.09
2019-03-27T18:18:13.564Z,93.21
2019-03-27T18:20:43.224Z,93.37
2019-03-27T18:23:14.039Z,93.52
2019-03-27T18:25:43.671Z,93.64
2019-03-27T18:28:13.504Z,93.48
2019-03-27T18:30:43.131Z,93.44
2019-03-27T18:33:12.755Z,93.26
2019-03-27T18:35:42.488Z,93.28
2019-03-27T18:38:12.120Z,93.47
2019-03-27T18:40:41.746Z,93.21
2019-03-27T18:43:11.273Z,93.33
2019-03-27T18:45:41.110Z,93.28
2019-03-27T18:48:10.749Z,93.42
2019-03-27T18:50:40.476Z,93.50
2019-03-27T18:53:10.292Z,93.54
2019-03-27T18:55:40.029Z,93.65
2019-03-27T18:58:09.758Z,93.71
2019-03-27T19:00:39.486Z,93.73
2019-03-27T19:03:10.219Z,93.87
2019-03-27T19:05:39.862Z,93.96
2019-03-27T19:08:09.607Z,94.10
2019-03-27T19:10:40.561Z,94.28
2019-03-27T19:13:10.287Z,94.18
2019-03-27T19:15:39.904Z,94.22
2019-03-27T19:18:09.747Z,94.27
2019-03-27T19:20:40.716Z,94.36
2019-03-27T19:23:10.441Z,94.48
2019-03-27T19:25:42.273Z,94.66
2019-03-27T19:28:11.941Z,94.85
2019-03-27T19:30:41.546Z,94.77
2019-03-27T19:33:11.142Z,94.78
2019-03-27T19:35:40.919Z,94.82
2019-03-27T19:38:10.656Z,94.92
2019-03-27T19:40:40.292Z,94.99
2019-03-27T19:43:10.012Z,95.04
2019-03-27T19:45:39.743Z,95.05
2019-03-27T19:48:09.473Z,95.04
2019-03-27T19:50:39.185Z,95.07
2019-03-27T19:53:10.058Z,95.16
2019-03-27T19:55:39.581Z,95.29
2019-03-27T19:58:10.813Z,95.50
2019-03-27T20:00:40.574Z,95.73
2019-03-27T20:03:10.310Z,95.91
2019-03-27T20:05:39.967Z,96.02
2019-03-27T20:08:09.611Z,96.20
2019-03-27T20:10:39.506Z,96.45
2019-03-27T20:13:09.131Z,96.45
2019-03-27T20:15:39.984Z,96.47
2019-03-27T20:18:09.672Z,96.51
2019-03-27T20:20:39.454Z,96.56
2019-03-27T20:23:14.761Z,96.59
2019-03-27T20:25:40.640Z,96.54
2019-03-27T20:28:10.370Z,96.53
2019-03-27T20:30:40.102Z,96.42
2019-03-27T20:33:09.730Z,96.44
2019-03-27T20:35:39.452Z,96.48
2019-03-27T20:38:09.095Z,96.46
2019-03-27T20:40:38.820Z,96.45
2019-03-27T20:43:08.548Z,96.52
2019-03-27T20:45:38.390Z,96.53
2019-03-27T20:48:08.112Z,96.52
2019-03-27T20:50:37.737Z,96.47
2019-03-27T20:53:07.470Z,96.49
2019-03-27T20:55:37.097Z,96.56
2019-03-27T20:58:06.835Z,96.53
2019-03-27T21:00:36.463Z,96.49
2019-03-27T21:03:06.185Z,96.51
2019-03-27T21:05:35.910Z,96.53
2019-03-27T21:08:05.639Z,96.53
2019-03-27T21:10:35.280Z,96.46
2019-03-27T21:13:05.117Z,96.48
2019-03-27T21:15:34.731Z,96.45
2019-03-27T21:18:04.459Z,96.41
2019-03-27T21:20:34.290Z,96.37
2019-03-27T21:23:04.019Z,96.35
2019-03-27T21:25:33.642Z,96.39
2019-03-27T21:28:03.385Z,96.42
2019-03-27T21:30:33.111Z,96.48
2019-03-27T21:33:02.644Z,96.55
2019-03-27T21:35:32.262Z,96.57
2019-03-27T21:38:01.995Z,96.63
2019-03-27T21:40:31.617Z,96.62
2019-03-27T21:43:01.359Z,96.63
2019-03-27T21:45:32.420Z,96.66
2019-03-27T21:48:02.249Z,96.72
2019-03-27T21:50:31.872Z,96.85
2019-03-27T21:53:01.508Z,96.96
2019-03-27T21:55:42.113Z,97.02
2019-03-27T21:58:02.600Z,97.04
2019-03-27T22:00:38.213Z,97.08
2019-03-27T22:03:07.782Z,97.08
2019-03-27T22:05:37.417Z,97.01
2019-03-27T22:08:07.143Z,97.03
2019-03-27T22:10:36.783Z,97.08
2019-03-27T22:13:06.427Z,97.10
2019-03-27T22:15:36.132Z,97.17
2019-03-27T22:18:05.765Z,97.18
2019-03-27T22:20:35.485Z,97.34
2019-03-27T22:23:05.111Z,97.36
2019-03-27T22:25:36.143Z,97.43
2019-03-27T22:28:06.419Z,97.54
2019-03-27T22:30:35.904Z,97.66
2019-03-27T22:33:05.468Z,97.77
2019-03-27T22:35:35.201Z,97.82
2019-03-27T22:38:04.878Z,97.91
2019-03-27T22:40:34.551Z,98.05
2019-03-27T22:43:04.294Z,98.12
2019-03-27T22:45:33.912Z,98.34
2019-03-27T22:48:03.745Z,98.35
2019-03-27T22:50:33.489Z,98.46
2019-03-27T22:53:03.416Z,98.50
2019-03-27T22:55:33.037Z,98.53
2019-03-27T22:58:02.567Z,98.62
2019-03-27T23:00:45.903Z,98.67
2019-03-27T23:03:18.385Z,98.73
2019-03-27T23:05:48.432Z,98.77
2019-03-27T23:08:18.113Z,98.81
2019-03-27T23:10:47.792Z,98.88
2019-03-27T23:13:19.173Z,98.92
2019-03-27T23:15:48.844Z,98.93
2019-03-27T23:18:18.411Z,99.02
2019-03-27T23:20:48.243Z,99.08
2019-03-27T23:23:17.864Z,99.17
2019-03-27T23:25:47.611Z,99.18
2019-03-27T23:28:17.229Z,99.17
2019-03-27T23:30:46.853Z,99.18
2019-03-27T23:33:16.507Z,99.25
2019-03-27T23:35:46.211Z,99.29
2019-03-27T23:38:15.748Z,99.26
2019-03-27T23:40:45.474Z,99.16
2019-03-27T23:43:16.227Z,99.17
2019-03-27T23:45:45.948Z,99.06
2019-03-27T23:48:15.779Z,98.93
2019-03-27T23:50:45.516Z,98.86
2019-03-27T23:53:15.238Z,98.90
2019-03-27T23:55:44.764Z,98.85
2019-03-27T23:58:14.497Z,98.89
